Flight Track Log - Related Links

Times and Time Zones

All times are in EDT time to prevent confusion due to time zone crossing. See the N960DL flight status page for this flight to view local times or setup timezone preferences in your user account.

Time Position Orientation Groundspeed Altitude Reporting Facility
EDT Latitude Longitude Course Direction KTS MPH feet Rate Location/Type
Mon 05:16:19 PM 33.6667 -84.5167 North 237 273 3,000  Level Atlanta TRACON
Mon 05:17:19 PM 33.7000 -84.5833 301° West 281 323 6,000 3,150 Climbing Atlanta TRACON
Mon 05:18:00 PM 33.8454 -84.1787 320° Northwest  Level FlightAware Approximate
Mon 05:18:19 PM 33.7833 -84.5833 360° North 285 328 9,300  Level Atlanta TRACON
Mon 05:19:00 PM 33.9456 -84.2667 North  Level FlightAware Approximate
Mon 05:19:55 PM 33.8811 -84.4742 43° Northeast 296 341 11,100  Level Atlanta Center
Mon 05:20:00 PM 34.0722 -84.2667 North  Level FlightAware Approximate
Mon 05:20:55 PM 33.9669 -84.3869 40° Northeast 357 411 13,500  Level Atlanta Center
Mon 05:21:00 PM 34.1988 -84.2667 North  Level FlightAware Approximate
Mon 05:21:55 PM 34.0672 -84.3572 14° North 359 413 16,100  Level Atlanta Center
Mon 05:22:55 PM 34.1842 -84.3150 17° North 391 450 18,600 1,950 Climbing Atlanta Center
Mon 05:23:55 PM 34.2992 -84.2878 11° North 403 464 20,000 1,300 Climbing Atlanta Center
Mon 05:24:55 PM 34.4203 -84.2831 North 422 486 21,200 1,000 Climbing Atlanta Center
Mon 05:25:55 PM 34.5411 -84.3011 353° North 435 501 22,000 600 Climbing Atlanta Center
Mon 05:26:55 PM 34.6642 -84.3142 355° North 446 513 22,400 550 Climbing Atlanta Center
Mon 05:27:55 PM 34.7872 -84.3297 354° North 446 513 23,100 1,250 Climbing Atlanta Center
Mon 05:28:55 PM 34.9147 -84.3478 353° North 446 513 24,900 1,750 Climbing Atlanta Center
Mon 05:29:55 PM 35.0356 -84.3608 355° North 446 513 26,600 1,750 Climbing Atlanta Center
Mon 05:30:55 PM 35.1586 -84.3742 355° North 446 513 28,400 1,600 Climbing Atlanta Center
Mon 05:31:55 PM 35.2817 -84.3772 359° North 441 507 29,800 800 Climbing Atlanta Center
Mon 05:32:55 PM 35.4008 -84.3292 18° North 435 501 30,000 100 Climbing Atlanta Center
Mon 05:33:55 PM 35.5197 -84.2736 21° North 440 506 30,000  Level Atlanta Center
Mon 05:34:55 PM 35.6325 -84.2175 22° Northeast 440 506 30,000 450 Level Atlanta Center
Mon 05:35:55 PM 35.7475 -84.1642 21° North 440 506 30,900 1,000 Climbing Atlanta Center
Mon 05:36:55 PM 35.8622 -84.1106 21° North 435 501 32,000 550 Climbing Atlanta Center
Mon 05:37:55 PM 35.9644 -84.0619 21° North 435 501 32,000  Level Atlanta Center
Mon 05:39:49 PM 36.1978 -83.9478 22° Northeast 442 509 32,000  Level Indianapolis Center
Mon 05:40:51 PM 36.3128 -83.8933 21° North 443 510 32,000  Level Indianapolis Center
Mon 05:41:53 PM 36.4261 -83.8369 22° Northeast 441 507 32,000  Level Indianapolis Center
Mon 05:42:55 PM 36.5522 -83.7817 19° North 443 510 32,000  Level Indianapolis Center
Mon 05:43:57 PM 36.6758 -83.7628 North 442 509 32,000  Level Indianapolis Center
Mon 05:44:59 PM 36.7972 -83.7411 North 439 505 32,000 -484 Level Indianapolis Center
Mon 05:46:01 PM 36.9206 -83.7189 North 443 510 31,000 -968 Descending Indianapolis Center
Mon 05:47:03 PM 37.0447 -83.6961 North 447 514 30,000 -919 Descending Indianapolis Center
Mon 05:48:05 PM 37.1692 -83.6753 North 448 516 29,100 -484 Descending Indianapolis Center
Mon 05:49:07 PM 37.3144 -83.6489 North 448 516 29,000 -629 Descending Indianapolis Center
Mon 05:50:09 PM 37.4394 -83.6256 North 449 517 27,800 -1,742 Descending Indianapolis Center
Mon 05:51:11 PM 37.5656 -83.6011 North 453 521 25,400 -1,839 Descending Indianapolis Center
Mon 05:52:13 PM 37.6856 -83.6158 354° North 450 518 24,000 -1,258 Descending Indianapolis Center
Mon 05:53:15 PM 37.7950 -83.6911 331° Northwest 447 514 22,800 -2,081 Descending Indianapolis Center
Mon 05:54:17 PM 37.9028 -83.7647 332° Northwest 441 507 19,700 -3,097 Descending Indianapolis Center
Mon 05:55:19 PM 38.0236 -83.8481 331° Northwest 429 494 16,400 -2,806 Descending Indianapolis Center
Mon 05:56:21 PM 38.1206 -83.9197 330° Northwest 406 467 13,900 -2,177 Descending Indianapolis Center
Mon 05:57:23 PM 38.2136 -83.9869 330° Northwest 386 444 11,900 -1,355 Descending Indianapolis Center
Mon 05:58:25 PM 38.3042 -84.0586 328° Northwest 383 441 11,100 -435 Descending Indianapolis Center
Mon 05:59:27 PM 38.3958 -84.1261 330° Northwest 380 437 11,000 -48 Descending Indianapolis Center
Mon 06:00:29 PM 38.4883 -84.1931 330° Northwest 381 438 11,000 48 Level Indianapolis Center
Mon 06:01:31 PM 38.5950 -84.2733 330° Northwest 379 436 11,100 -48 Climbing Indianapolis Center
Mon 06:02:33 PM 38.6719 -84.3450 324° Northwest 380 437 10,900 -97 Descending Indianapolis Center
Mon 06:03:35 PM 38.7408 -84.4481 311° West 376 433 10,900 -96 Level Indianapolis Center
Mon 06:04:38 PM 38.8297 -84.5347 323° Northwest 356 410 10,700 -360 Descending Indianapolis Center
Mon 06:05:15 PM 38.9000 -84.5333 North 308 354 10,300 -990 Descending Cincinnati TRACON
Mon 06:06:15 PM 38.9833 -84.5333 360° North 285 328 9,100 -1,556 Descending Cincinnati TRACON
Mon 06:07:03 PM 39.0333 -84.5333 360° North 283 326 7,500 -1,650 Descending Cincinnati TRACON
Mon 06:08:15 PM 39.1167 -84.5333 360° North 228 262 5,800 -1,573 Descending Cincinnati TRACON
Mon 06:08:46 PM 39.1489 -84.5444 345° North 248 285 4,800 -1,548 Descending Indianapolis Center
Mon 06:09:48 PM 39.1461 -84.6092 267° West 232 267 3,400 -1,355 Descending Indianapolis Center

Login

Don't have an account? Register now (free) for customized features, flight alerts, and more!